Time;durP1;ratioP1;P1;durP2;ratioP2;P2;SDS_P1;SDS_P2;PMS_P1;PMS_P2;Temp;Humidity;BMP_temperature;BMP_pressure;BME280_temperature;BME280_humidity;BME280_pressure;Samples;Min_cycle;Max_cycle;Signal;HPM_P1;HPM_P2
2021/12/02 00:01:35;;;;;;;0.00;0.00;;;;;;;-146.48;100.00;-16317.56;5324735;28;20072;-72
2021/12/02 00:04:06;;;;;;;0.00;0.00;;;;;;;-146.48;100.00;-16317.56;5324475;28;20032;-71
2021/12/02 00:06:38;;;;;;;0.00;0.00;;;;;;;-146.48;100.00;-16317.56;5323493;28;20031;-72
2021/12/02 00:09:09;;;;;;;0.00;0.00;;;;;;;-146.48;100.00;-16317.56;5324871;28;20039;-71
2021/12/02 00:11:40;;;;;;;0.00;0.00;;;;;;;-146.48;100.00;-16317.56;5323468;28;20054;-72
2021/12/02 00:14:13;;;;;;;0.00;0.00;;;;;;;-146.48;100.00;-16316.09;5324599;28;20105;-72
2021/12/02 00:22:27;;;;;;;0.00;0.00;;;;;;;-146.48;100.00;110117.28;5324809;28;20071;-71
2021/12/02 00:25:03;;;;;;;0.00;0.00;;;;;;;-146.48;100.00;114613.41;5323780;28;20092;-71
2021/12/02 00:27:35;;;;;;;0.00;0.00;;;;;;;-146.48;100.00;114613.41;5323566;28;20494;-71
2021/12/02 00:30:06;;;;;;;0.00;0.00;;;;;;;-146.48;100.00;114613.41;5323789;28;20058;-71
2021/12/02 00:32:41;;;;;;;0.00;0.00;;;;;;;-146.48;100.00;114613.41;5323117;28;20080;-73
2021/12/02 00:35:16;;;;;;;0.00;0.00;;;;;;;-146.48;100.00;114613.41;5324190;28;20036;-72
2021/12/02 00:37:48;;;;;;;0.00;0.00;;;;;;;-146.48;100.00;114613.41;5323713;28;20069;-72
2021/12/02 00:40:20;;;;;;;0.00;0.00;;;;;;;-146.48;100.00;114613.41;5323531;28;20543;-72
2021/12/02 00:42:53;;;;;;;0.00;0.00;;;;;;;-146.48;100.00;114613.41;5323799;28;20023;-69
2021/12/02 00:45:26;;;;;;;0.00;0.00;;;;;;;-146.48;100.00;114613.41;5323718;28;20036;-69
2021/12/02 00:47:59;;;;;;;0.00;0.00;;;;;;;-146.48;100.00;114613.41;5322749;28;20027;-70
2021/12/02 00:50:31;;;;;;;0.00;0.00;;;;;;;-146.48;100.00;114613.41;5324123;28;20024;-69
2021/12/02 00:53:05;;;;;;;0.00;0.00;;;;;;;-146.48;100.00;114613.41;5323497;28;20123;-69
2021/12/02 00:55:39;;;;;;;0.10;0.00;;;;;;;-146.48;100.00;114613.41;5323071;28;20103;-70
2021/12/02 00:58:18;;;;;;;0.00;0.00;;;;;;;-146.48;100.00;114613.41;5323847;28;20027;-70
2021/12/02 01:00:52;;;;;;;0.00;0.00;;;;;;;-146.48;100.00;114613.41;5322868;28;20125;-71
2021/12/02 01:03:26;;;;;;;0.38;0.00;;;;;;;-146.48;100.00;114613.41;5323802;28;20016;-70
2021/12/02 01:05:57;;;;;;;0.00;0.00;;;;;;;-146.48;100.00;114613.41;5323276;28;20368;-70
2021/12/02 01:08:30;;;;;;;0.00;0.00;;;;;;;-146.48;100.00;114613.41;5322965;28;20027;-70
2021/12/02 01:11:04;;;;;;;0.00;0.00;;;;;;;-146.48;100.00;114613.41;5322531;28;20054;-70
2021/12/02 01:13:35;;;;;;;0.20;0.00;;;;;;;-146.48;100.00;114613.41;5323955;28;20032;-70
2021/12/02 01:16:07;;;;;;;0.00;0.00;;;;;;;-146.48;100.00;114613.41;5322405;28;20069;-69
2021/12/02 01:18:38;;;;;;;0.00;0.00;;;;;;;-146.48;100.00;114613.41;5323236;28;20020;-70
2021/12/02 01:21:14;;;;;;;0.10;0.00;;;;;;;-146.48;100.00;114613.41;5323650;28;20019;-71
2021/12/02 01:23:50;;;;;;;0.00;0.00;;;;;;;-146.48;100.00;114613.41;5322283;28;20102;-70
2021/12/02 01:26:22;;;;;;;0.00;0.00;;;;;;;-146.48;100.00;114613.41;5323867;28;20055;-70
2021/12/02 01:28:55;;;;;;;0.10;0.00;;;;;;;-146.48;100.00;114613.41;5322417;28;20043;-71
2021/12/02 01:31:31;;;;;;;0.10;0.00;;;;;;;-146.48;100.00;114613.41;5323600;28;20032;-70
2021/12/02 01:34:07;;;;;;;0.00;0.00;;;;;;;-146.48;100.00;114613.41;5323282;28;20023;-70
2021/12/02 01:36:40;;;;;;;0.03;0.00;;;;;;;-146.48;100.00;114613.41;5322353;28;20036;-70
2021/12/02 01:39:11;;;;;;;0.00;0.00;;;;;;;-146.48;100.00;114613.41;5323423;28;20031;-70
2021/12/02 01:41:48;;;;;;;0.00;0.00;;;;;;;-146.48;100.00;114613.41;5322834;28;20390;-70
2021/12/02 01:44:21;;;;;;;0.00;0.00;;;;;;;-146.48;100.00;114613.41;5323003;28;20032;-70
2021/12/02 01:46:57;;;;;;;0.00;0.00;;;;;;;-146.48;100.00;114613.41;5320857;28;20048;-70
2021/12/02 01:49:34;;;;;;;0.73;0.00;;;;;;;-146.48;100.00;114613.41;5323719;28;20035;-71
2021/12/02 01:52:09;;;;;;;0.00;0.00;;;;;;;-146.48;100.00;114613.41;5322067;28;20050;-70
2021/12/02 01:54:45;;;;;;;0.00;0.00;;;;;;;-146.48;100.00;114613.41;5323209;28;20020;-70
2021/12/02 01:57:29;;;;;;;0.00;0.00;;;;;;;-146.48;100.00;114613.41;5322784;28;20062;-72
2021/12/02 02:00:15;;;;;;;1.60;0.00;;;;;;;-146.48;100.00;114613.41;5322916;28;20063;-71
2021/12/02 02:02:47;;;;;;;0.47;0.00;;;;;;;-146.48;100.00;114613.41;5322793;28;20027;-71
2021/12/02 02:05:19;;;;;;;0.10;0.00;;;;;;;-146.48;100.00;114613.41;5322449;28;20046;-71
2021/12/02 02:08:10;;;;;;;0.00;0.00;;;;;;;-146.48;100.00;114613.41;5322523;28;20477;-71
2021/12/02 02:10:42;;;;;;;0.85;0.00;;;;;;;-146.48;100.00;114613.41;5322787;28;20352;-71
2021/12/02 02:13:15;;;;;;;0.50;0.03;;;;;;;-146.48;100.00;114613.41;5322240;28;20047;-72
2021/12/02 02:15:50;;;;;;;0.10;0.00;;;;;;;-146.48;100.00;114613.41;5322497;28;20060;-71
2021/12/02 02:18:23;;;;;;;0.55;0.10;;;;;;;-146.48;100.00;114613.41;5322463;28;20109;-71
2021/12/02 02:21:02;;;;;;;0.98;0.00;;;;;;;-146.48;100.00;114613.41;5322495;28;20523;-71
2021/12/02 02:23:39;;;;;;;1.35;0.00;;;;;;;-146.48;100.00;113947.31;5325504;28;20094;-71
2021/12/02 02:26:11;;;;;;;1.00;0.03;;;;;;;-146.48;100.00;110778.72;5326279;28;20471;-70
2021/12/02 02:28:42;;;;;;;2.38;0.10;;;;;;;-146.48;100.00;107908.59;5326269;28;20020;-71
2021/12/02 02:31:13;;;;;;;2.63;0.10;;;;;;;-146.48;100.00;102476.19;5326829;28;20031;-71
2021/12/02 02:33:49;;;;;;;0.90;0.10;;;;;;;-146.48;100.00;96640.53;5325261;28;20019;-71
2021/12/02 02:36:24;;;;;;;2.10;0.20;;;;;;;-146.48;100.00;92121.84;5326754;28;20023;-71
2021/12/02 02:38:56;;;;;;;1.85;0.10;;;;;;;-146.48;100.00;85756.59;5326022;28;20020;-71
2021/12/02 02:41:32;;;;;;;0.80;0.10;;;;;;;-146.48;100.00;84244.47;5325752;28;20034;-70
2021/12/02 02:44:04;;;;;;;0.15;0.00;;;;;;;-146.48;100.00;80206.84;5325663;28;20095;-71
2021/12/02 02:46:39;;;;;;;2.40;0.10;;;;;;;-146.48;100.00;74610.44;5325585;28;20103;-71
2021/12/02 02:49:12;;;;;;;2.75;0.20;;;;;;;-146.48;100.00;77758.81;5326078;28;20052;-71
2021/12/02 02:51:45;;;;;;;1.63;0.10;;;;;;;-146.48;100.00;70978.25;5325860;28;20024;-71
2021/12/02 02:54:17;;;;;;;0.00;0.00;;;;;;;-146.48;100.00;69208.59;5325176;28;20035;-71
2021/12/02 02:56:58;;;;;;;4.07;0.30;;;;;;;-146.48;100.00;69949.72;5325472;28;20028;-71
2021/12/02 03:02:23;;;;;;;0.00;0.00;;;;;;;-146.48;100.00;67393.56;5324864;28;20046;-71
2021/12/02 03:07:53;;;;;;;0.10;0.00;;;;;;;-146.48;100.00;66626.84;5324564;28;20040;-71
2021/12/02 03:13:16;;;;;;;0.10;0.00;;;;;;;-146.48;100.00;66311.75;5325418;28;20420;-71
2021/12/02 03:18:40;;;;;;;0.00;0.00;;;;;;;-146.48;100.00;65928.47;5325537;28;20402;-71
2021/12/02 03:21:22;;;;;;;0.10;0.00;;;;;;;-146.48;100.00;65051.69;5326130;28;20036;-71
2021/12/02 03:23:59;;;;;;;0.45;0.00;;;;;;;-146.48;100.00;62133.81;5324783;28;20023;-71
2021/12/02 03:26:32;;;;;;;1.45;0.30;;;;;;;-146.48;100.00;61562.50;5325886;28;20032;-71
2021/12/02 03:29:04;;;;;;;0.32;0.08;;;;;;;-146.48;100.00;60782.88;5324125;28;20386;-71
2021/12/02 03:31:35;;;;;;;4.07;0.20;;;;;;;-146.48;100.00;60315.97;5325573;28;20072;-71
2021/12/02 03:34:07;;;;;;;1.92;0.10;;;;;;;-146.48;100.00;60830.97;5324186;28;20024;-71
2021/12/02 03:36:38;;;;;;;0.05;0.00;;;;;;;-146.48;100.00;61540.47;5324199;28;20022;-71
2021/12/02 03:39:11;;;;;;;0.00;0.00;;;;;;;-146.48;100.00;62207.97;5325585;28;20027;-71
2021/12/02 03:41:43;;;;;;;0.05;0.00;;;;;;;-146.48;100.00;63302.72;5324917;28;20451;-71
2021/12/02 03:44:14;;;;;;;0.30;0.05;;;;;;;-146.48;100.00;65434.88;5325012;28;20043;-71
2021/12/02 03:46:46;;;;;;;0.00;0.00;;;;;;;-146.48;100.00;69831.22;5324565;28;20044;-70
2021/12/02 03:49:18;;;;;;;0.20;0.00;;;;;;;-146.48;100.00;75352.53;5325586;28;20031;-70
2021/12/02 03:51:49;;;;;;;0.85;0.00;;;;;;;-146.48;100.00;76124.97;5323753;28;20028;-71
2021/12/02 03:54:20;;;;;;;0.30;0.00;;;;;;;-146.48;100.00;77668.25;5325192;28;20471;-71
2021/12/02 03:56:52;;;;;;;1.67;0.00;;;;;;;-146.48;100.00;78771.25;5323698;28;20027;-71
2021/12/02 03:59:23;;;;;;;0.30;0.00;;;;;;;-146.48;100.00;80390.09;5325190;28;20055;-71
2021/12/02 04:01:54;;;;;;;0.20;0.00;;;;;;;-146.48;100.00;83141.97;5324543;28;20043;-71
2021/12/02 04:04:26;;;;;;;3.67;0.03;;;;;;;-146.48;100.00;85135.53;5324350;28;20486;-71
2021/12/02 04:06:57;;;;;;;1.33;0.10;;;;;;;-146.48;100.00;86016.75;5324556;28;20066;-70
2021/12/02 04:09:35;;;;;;;1.40;0.00;;;;;;;-146.48;100.00;86180.09;5324952;28;20077;-70
2021/12/02 04:12:17;;;;;;;1.52;0.10;;;;;;;-146.48;100.00;86946.53;5323789;28;20043;-70
2021/12/02 04:17:41;;;;;;;4.03;0.00;;;;;;;-146.48;100.00;89398.13;5325074;28;20035;-71
2021/12/02 04:20:15;;;;;;;1.17;0.08;;;;;;;-146.48;100.00;91376.63;5324837;28;20032;-70
2021/12/02 04:22:46;;;;;;;2.15;0.10;;;;;;;-146.48;100.00;93414.69;5324371;28;20473;-71
2021/12/02 04:25:18;;;;;;;2.58;0.10;;;;;;;-146.48;100.00;94784.75;5324115;28;20035;-71
2021/12/02 04:27:51;;;;;;;3.38;0.20;;;;;;;-146.48;100.00;96333.19;5323882;28;20023;-71
2021/12/02 04:30:24;;;;;;;0.22;0.10;;;;;;;-146.48;100.00;98834.97;5324452;28;20032;-70
2021/12/02 04:32:56;;;;;;;1.85;0.10;;;;;;;-146.48;100.00;100676.41;5323487;28;20042;-71
2021/12/02 04:35:28;;;;;;;0.40;0.00;;;;;;;-146.48;100.00;102217.00;5324725;28;20024;-71
2021/12/02 04:37:59;;;;;;;0.82;0.00;;;;;;;-146.48;100.00;103976.91;5323923;28;20053;-71
2021/12/02 04:40:30;;;;;;;0.30;0.00;;;;;;;-146.48;100.00;105693.00;5323571;28;20069;-70
2021/12/02 04:43:03;;;;;;;0.08;0.00;;;;;;;-146.48;100.00;106898.97;5323614;28;20034;-71
2021/12/02 04:45:34;;;;;;;0.50;0.00;;;;;;;-146.48;100.00;107760.59;5324115;28;20395;-70
2021/12/02 04:48:06;;;;;;;0.10;0.00;;;;;;;-146.48;100.00;108285.75;5323097;28;20030;-71
2021/12/02 04:50:38;;;;;;;1.08;0.00;;;;;;;-146.48;100.00;109105.09;5323765;28;20467;-71
2021/12/02 04:53:09;;;;;;;0.00;0.00;;;;;;;-146.48;100.00;110604.22;5323574;28;20027;-71
2021/12/02 04:55:41;;;;;;;0.20;0.00;;;;;;;-146.48;100.00;111598.53;5323447;28;20119;-71
2021/12/02 04:58:13;;;;;;;0.10;0.00;;;;;;;-146.48;100.00;111817.72;5324310;28;20049;-71
2021/12/02 05:00:44;;;;;;;0.10;0.00;;;;;;;-146.48;100.00;111791.34;5322801;28;20020;-71
2021/12/02 05:03:15;;;;;;;0.00;0.00;;;;;;;-146.48;100.00;111511.25;5324227;28;20108;-71
2021/12/02 05:05:47;;;;;;;0.20;0.00;;;;;;;-146.48;100.00;43559.84;5323395;28;20054;-71
2021/12/02 05:08:18;;;;;;;9.15;0.20;;;;;;;-146.48;100.00;99626.09;5323218;28;20050;-71
2021/12/02 05:10:49;;;;;;;0.20;0.03;;;;;;;-146.48;100.00;114613.41;5323408;28;20368;-70
2021/12/02 05:13:21;;;;;;;0.80;0.10;;;;;;;-146.48;100.00;114613.41;5324101;28;20085;-71
2021/12/02 05:15:52;;;;;;;4.95;0.20;;;;;;;-146.48;100.00;114613.41;5322692;28;20020;-71
2021/12/02 05:18:23;;;;;;;0.65;0.00;;;;;;;-146.48;100.00;114613.41;5323967;28;20102;-70
2021/12/02 05:20:56;;;;;;;1.02;0.00;;;;;;;-146.48;100.00;114613.41;5322548;28;20451;-72
2021/12/02 05:23:28;;;;;;;0.10;0.00;;;;;;;-146.48;100.00;114613.41;5323866;28;20036;-72
2021/12/02 05:25:59;;;;;;;0.20;0.00;;;;;;;-146.48;100.00;114613.41;5323209;28;20471;-71
2021/12/02 05:28:30;;;;;;;0.55;0.00;;;;;;;-146.48;100.00;114613.41;5322966;28;20031;-72
2021/12/02 05:31:02;;;;;;;0.10;0.00;;;;;;;-146.48;100.00;114613.41;5323254;28;20050;-72
2021/12/02 05:33:33;;;;;;;1.17;0.00;;;;;;;-146.48;100.00;114613.41;5323801;28;20031;-71
2021/12/02 05:36:05;;;;;;;0.00;0.00;;;;;;;-146.48;100.00;114613.41;5322708;28;20412;-71
2021/12/02 05:38:36;;;;;;;0.00;0.00;;;;;;;-146.48;100.00;114613.41;5323538;28;20024;-71
2021/12/02 05:41:08;;;;;;;0.17;0.00;;;;;;;-146.48;100.00;114613.41;5323481;28;20027;-71
2021/12/02 05:43:39;;;;;;;0.00;0.00;;;;;;;-146.48;100.00;114613.41;5322350;28;20034;-71
2021/12/02 05:46:10;;;;;;;0.88;0.00;;;;;;;-146.48;100.00;114613.41;5323774;28;20082;-71
2021/12/02 05:48:42;;;;;;;0.00;0.00;;;;;;;-146.48;100.00;114613.41;5323310;28;20050;-71
2021/12/02 05:51:13;;;;;;;0.00;0.00;;;;;;;-146.48;100.00;114613.41;5323153;28;20024;-71
2021/12/02 05:53:45;;;;;;;1.75;0.00;;;;;;;-146.48;100.00;114613.41;5323296;28;20106;-72
2021/12/02 05:56:16;;;;;;;0.00;0.00;;;;;;;-146.48;100.00;114613.41;5322867;28;20028;-71
2021/12/02 05:58:47;;;;;;;0.10;0.00;;;;;;;-146.48;100.00;114613.41;5326338;28;20398;-71
2021/12/02 06:01:18;;;;;;;0.00;0.00;;;;;;;-146.48;100.00;114613.41;5327892;28;20043;-71
2021/12/02 06:03:50;;;;;;;0.05;0.00;;;;;;;-146.48;100.00;114613.41;5326316;28;20027;-71
2021/12/02 06:06:25;;;;;;;1.70;0.00;;;;;;;-146.48;100.00;114613.41;5327816;28;20024;-71
2021/12/02 06:08:56;;;;;;;0.00;0.00;;;;;;;-146.48;100.00;114613.41;5327139;28;20062;-71
2021/12/02 06:11:27;;;;;;;0.03;0.00;;;;;;;-146.48;100.00;114613.41;5326872;28;20055;-71
2021/12/02 06:13:59;;;;;;;0.38;0.00;;;;;;;-146.48;100.00;114613.41;5326937;28;20061;-70
2021/12/02 06:16:30;;;;;;;0.00;0.00;;;;;;;-146.48;100.00;114613.41;5327437;28;20101;-71
2021/12/02 06:19:01;;;;;;;0.00;0.00;;;;;;;-146.48;100.00;114613.41;5326117;28;20396;-71
2021/12/02 06:21:32;;;;;;;0.00;0.00;;;;;;;-146.48;100.00;114613.41;5327689;28;20023;-71
2021/12/02 06:24:05;;;;;;;0.88;0.00;;;;;;;-146.48;100.00;114613.41;5326789;28;20034;-71
2021/12/02 06:26:37;;;;;;;0.00;0.00;;;;;;;-146.48;100.00;114613.41;5326201;28;20027;-71
2021/12/02 06:29:09;;;;;;;0.20;0.00;;;;;;;-146.48;100.00;114613.41;5327080;28;20075;-72
2021/12/02 06:31:40;;;;;;;0.00;0.00;;;;;;;-146.48;100.00;114613.41;5325821;28;20455;-70
2021/12/02 06:34:11;;;;;;;0.15;0.00;;;;;;;-146.48;100.00;114613.41;5327184;28;20023;-70
2021/12/02 06:36:43;;;;;;;0.10;0.00;;;;;;;-146.48;100.00;114613.41;5326717;28;20027;-70
2021/12/02 06:39:14;;;;;;;0.00;0.00;;;;;;;-146.48;100.00;114613.41;5326202;28;20038;-70
2021/12/02 06:41:45;;;;;;;1.85;0.00;;;;;;;-146.48;100.00;114613.41;5326146;27;20068;-70
2021/12/02 06:44:17;;;;;;;0.00;0.00;;;;;;;-146.48;100.00;114613.41;5326840;28;20028;-70
2021/12/02 06:46:48;;;;;;;0.47;0.00;;;;;;;-146.48;100.00;114613.41;5325142;28;20124;-70
2021/12/02 06:49:19;;;;;;;0.38;0.00;;;;;;;-146.48;100.00;114613.41;5326490;28;20028;-70
2021/12/02 06:51:50;;;;;;;0.20;0.00;;;;;;;-146.48;100.00;114613.41;5325599;28;20031;-72
2021/12/02 06:54:22;;;;;;;1.65;0.00;;;;;;;-146.48;100.00;114613.41;5325555;28;20024;-70
2021/12/02 06:56:53;;;;;;;0.00;0.00;;;;;;;-146.48;100.00;114613.41;5326049;28;20407;-70
2021/12/02 06:59:24;;;;;;;1.10;0.20;;;;;;;-146.48;100.00;114613.41;5325964;28;20096;-71
2021/12/02 07:01:56;;;;;;;0.60;0.20;;;;;;;-146.48;100.00;114613.41;5325769;28;20066;-71
2021/12/02 07:04:27;;;;;;;1.85;0.00;;;;;;;-146.48;100.00;114613.41;5325966;28;20038;-71
2021/12/02 07:06:58;;;;;;;0.00;0.00;;;;;;;-146.48;100.00;114613.41;5324665;28;20446;-71
2021/12/02 07:09:29;;;;;;;0.13;0.00;;;;;;;-146.48;100.00;114613.41;5324973;28;20107;-71
2021/12/02 07:12:01;;;;;;;1.13;0.15;;;;;;;-146.48;100.00;114613.41;5323782;28;20089;-71
2021/12/02 07:14:32;;;;;;;1.85;0.32;;;;;;;-146.48;100.00;114613.41;5323986;28;20049;-71
2021/12/02 07:17:03;;;;;;;2.75;0.30;;;;;;;-146.48;100.00;114613.41;5324219;28;20063;-71
2021/12/02 07:19:39;;;;;;;1.33;0.38;;;;;;;-146.48;100.00;114613.41;5325007;28;20158;-72
2021/12/02 07:22:10;;;;;;;4.65;0.40;;;;;;;-146.48;100.00;114613.41;5324086;28;20093;-72
2021/12/02 07:24:41;;;;;;;5.00;0.60;;;;;;;-146.48;100.00;114613.41;5323485;28;20028;-72
2021/12/02 07:27:13;;;;;;;2.05;0.40;;;;;;;-146.48;100.00;114613.41;5324745;28;20019;-72
2021/12/02 07:29:44;;;;;;;1.77;0.30;;;;;;;-146.48;100.00;114613.41;5323073;28;20024;-71
2021/12/02 07:32:16;;;;;;;1.13;0.30;;;;;;;-146.48;100.00;114613.41;5324797;28;20020;-71
2021/12/02 07:34:52;;;;;;;3.95;0.22;;;;;;;-146.48;100.00;114613.41;5322854;28;20115;-72
2021/12/02 07:37:24;;;;;;;3.03;0.20;;;;;;;-146.48;100.00;114613.41;5324851;28;20031;-71
2021/12/02 07:39:56;;;;;;;1.45;0.10;;;;;;;-146.48;100.00;114613.41;5324954;28;20020;-72
2021/12/02 07:42:27;;;;;;;2.05;0.25;;;;;;;-146.48;100.00;114613.41;5325067;28;20495;-70
2021/12/02 07:44:59;;;;;;;2.03;0.30;;;;;;;-146.48;100.00;114613.41;5324822;28;20038;-72
2021/12/02 07:47:33;;;;;;;6.50;0.40;;;;;;;-146.48;100.00;114613.41;5325468;28;20403;-72
2021/12/02 07:50:09;;;;;;;2.97;0.30;;;;;;;-146.48;100.00;114613.41;5323942;28;20120;-72
2021/12/02 07:52:45;;;;;;;1.63;0.40;;;;;;;-146.48;100.00;114613.41;5324805;28;20042;-72
2021/12/02 07:55:18;;;;;;;2.63;0.30;;;;;;;-146.48;100.00;112154.66;5325412;28;20023;-70
2021/12/02 07:57:50;;;;;;;1.02;0.30;;;;;;;-146.48;100.00;112331.22;5324029;28;20027;-70
2021/12/02 08:00:27;;;;;;;3.35;0.30;;;;;;;-146.48;100.00;100024.75;5323159;28;20028;-70
2021/12/02 08:02:58;;;;;;;4.40;0.45;;;;;;;-146.48;100.00;101957.84;5322534;28;20470;-70
2021/12/02 08:05:30;;;;;;;2.03;0.38;;;;;;;-146.48;100.00;96323.06;5323711;28;20038;-71
2021/12/02 08:08:02;;;;;;;2.30;0.30;;;;;;;-146.48;100.00;94722.09;5323408;28;20032;-70
2021/12/02 08:10:33;;;;;;;2.20;0.30;;;;;;;-146.48;100.00;92636.91;5323025;28;20020;-69
2021/12/02 08:13:06;;;;;;;1.85;0.60;;;;;;;-146.48;100.00;87315.69;5322759;28;20463;-69
2021/12/02 08:15:37;;;;;;;4.07;0.60;;;;;;;-146.48;100.00;79246.38;5323061;28;20072;-69
2021/12/02 08:18:09;;;;;;;1.92;0.40;;;;;;;-146.48;100.00;72063.34;5322848;28;20023;-69
2021/12/02 08:20:40;;;;;;;2.15;0.40;;;;;;;-146.48;100.00;65900.38;5327472;27;20518;-70
2021/12/02 08:23:11;;;;;;;3.47;0.50;;;;;;;-146.48;100.00;59262.13;5343602;27;20027;-69
2021/12/02 08:25:43;;;;;;;1.90;0.50;;;;;;;-146.48;100.00;53723.03;5342504;27;20110;-70
2021/12/02 08:28:15;;;;;;;2.63;0.50;;;;;;;-146.48;100.00;49512.34;5343822;27;20486;-70
2021/12/02 08:30:46;;;;;;;0.77;0.30;;;;;;;-146.48;100.00;44280.22;5343251;27;20075;-70
2021/12/02 08:33:19;;;;;;;3.95;0.60;;;;;;;-146.48;100.00;39515.47;5342684;27;20480;-70
2021/12/02 08:35:50;;;;;;;3.20;0.60;;;;;;;-146.48;100.00;35136.72;5343236;27;20019;-70
2021/12/02 08:38:30;;;;;;;3.88;0.60;;;;;;;-146.48;100.00;31803.16;5343044;27;20109;-70
2021/12/02 08:41:01;;;;;;;5.65;0.60;;;;;;;-146.48;100.00;47330.78;5343304;27;20027;-70
2021/12/02 08:43:32;;;;;;;1.75;0.50;;;;;;;-146.48;100.00;80764.69;5344002;27;20042;-70
2021/12/02 08:46:04;;;;;;;1.92;0.60;;;;;;;-146.48;100.00;80964.09;5341386;27;20054;-70
2021/12/02 08:48:35;;;;;;;3.83;0.38;;;;;;;-146.48;100.00;88324.50;5344328;27;20094;-72
2021/12/02 08:51:07;;;;;;;0.60;0.20;;;;;;;-146.48;100.00;86438.25;5342628;27;20024;-70
2021/12/02 08:53:38;;;;;;;1.45;0.40;;;;;;;-146.48;100.00;82049.84;5343071;27;20066;-72
2021/12/02 08:56:09;;;;;;;1.45;0.25;;;;;;;-146.48;100.00;79216.19;5344187;27;20028;-70
2021/12/02 08:58:40;;;;;;;2.92;0.40;;;;;;;-146.48;100.00;70451.91;5343514;27;20059;-70
2021/12/02 09:01:12;;;;;;;2.53;0.40;;;;;;;-146.48;100.00;61789.00;5343036;27;20038;-70
2021/12/02 09:03:44;;;;;;;3.55;0.40;;;;;;;-146.48;100.00;55589.88;5343142;27;20526;-70
2021/12/02 09:06:21;;;;;;;5.47;0.50;;;;;;;-146.48;100.00;52756.94;5343133;27;20154;-70
2021/12/02 09:08:58;;;;;;;2.65;0.40;;;;;;;-146.48;100.00;50067.91;5343704;27;20023;-70
2021/12/02 09:11:31;;;;;;;3.00;0.35;;;;;;;-146.48;100.00;49038.78;5343891;28;20026;-70
2021/12/02 09:14:05;;;;;;;4.25;0.30;;;;;;;-146.48;100.00;47902.03;5342125;28;20415;-70
2021/12/02 09:16:37;;;;;;;1.60;0.40;;;;;;;-146.48;100.00;47185.00;5343268;28;20466;-70
2021/12/02 09:19:08;;;;;;;2.80;0.50;;;;;;;-146.48;100.00;45797.22;5343687;27;20027;-70
2021/12/02 09:21:39;;;;;;;2.05;0.20;;;;;;;-146.48;100.00;47458.63;5342561;27;20023;-70
2021/12/02 09:24:18;;;;;;;1.38;0.25;;;;;;;-146.48;100.00;46324.31;5343905;27;20066;-70
2021/12/02 09:26:50;;;;;;;3.55;0.20;;;;;;;-146.48;100.00;47169.00;5343506;28;20023;-71
2021/12/02 09:29:23;;;;;;;2.45;0.30;;;;;;;-146.48;100.00;46697.72;5342468;27;20073;-71
2021/12/02 09:31:55;;;;;;;0.95;0.20;;;;;;;-146.48;100.00;47384.72;5343672;27;20023;-71
2021/12/02 09:34:26;;;;;;;2.03;0.20;;;;;;;-146.48;100.00;47684.31;5347025;27;20038;-71
2021/12/02 09:36:58;;;;;;;2.55;0.20;;;;;;;-146.48;100.00;46909.41;5347483;27;20467;-71
2021/12/02 09:39:31;;;;;;;5.28;0.28;;;;;;;-146.48;100.00;45427.91;5348187;27;20023;-71
2021/12/02 09:42:10;;;;;;;3.60;0.20;;;;;;;-146.48;100.00;50493.63;5346291;27;20424;-71
2021/12/02 09:44:44;;;;;;;4.28;0.20;;;;;;;-146.48;100.00;50247.78;5347183;27;20027;-70
2021/12/02 09:47:16;;;;;;;2.17;0.20;;;;;;;-146.48;100.00;50023.94;5347503;27;20486;-71
2021/12/02 09:49:48;;;;;;;2.42;0.10;;;;;;;-146.48;100.00;50005.97;5346491;27;20023;-71
2021/12/02 09:52:29;;;;;;;2.20;0.17;;;;;;;-146.48;100.00;49944.00;5347955;27;20027;-71
2021/12/02 09:55:11;;;;;;;2.88;0.20;;;;;;;-146.48;100.00;50205.81;5346709;27;20389;-72
2021/12/02 09:57:47;;;;;;;2.83;0.25;;;;;;;-146.48;100.00;50657.53;5346684;27;20031;-71
2021/12/02 10:00:24;;;;;;;1.58;0.20;;;;;;;-146.48;100.00;50561.59;5347540;27;20027;-71
2021/12/02 10:03:02;;;;;;;2.95;0.13;;;;;;;-146.48;100.00;50577.59;5346283;27;20023;-71
2021/12/02 10:05:56;;;;;;;2.00;0.20;;;;;;;-146.48;100.00;50675.53;5347521;27;20023;-72
2021/12/02 10:08:32;;;;;;;3.03;0.20;;;;;;;-146.48;100.00;50943.41;5347063;27;20106;-71
2021/12/02 10:11:07;;;;;;;1.63;0.20;;;;;;;-146.48;100.00;50803.47;5346078;27;20023;-71
2021/12/02 10:13:58;;;;;;;3.85;0.40;;;;;;;-146.48;100.00;50919.41;5346810;27;20103;-71
2021/12/02 10:16:31;;;;;;;3.17;0.35;;;;;;;-146.48;100.00;51105.31;5346439;27;20390;-71
2021/12/02 10:19:09;;;;;;;4.20;1.40;;;;;;;-146.48;100.00;51065.34;5346733;27;20030;-71
2021/12/02 10:21:46;;;;;;;0.10;0.10;;;;;;;-146.48;100.00;51011.38;5346051;27;20072;-71
2021/12/02 10:24:28;;;;;;;1.25;0.30;;;;;;;-146.48;100.00;51351.22;5346085;27;20114;-71
2021/12/02 10:27:04;;;;;;;4.60;0.40;;;;;;;-146.48;100.00;51525.16;5346187;27;20023;-71
2021/12/02 10:29:38;;;;;;;4.88;0.30;;;;;;;-146.48;100.00;51609.13;5346959;27;20023;-71
2021/12/02 10:32:16;;;;;;;3.05;0.40;;;;;;;-146.48;100.00;51775.09;5346221;27;20397;-71
2021/12/02 10:35:17;;;;;;;6.53;0.40;;;;;;;-146.48;100.00;52027.03;5345991;27;20088;-71
2021/12/02 10:37:49;;;;;;;6.70;0.30;;;;;;;-146.48;100.00;52790.94;5328014;27;20035;-71
2021/12/02 10:40:21;;;;;;;5.72;0.30;;;;;;;-146.48;100.00;52888.94;5346830;27;20034;-71
2021/12/02 10:42:52;;;;;;;4.43;0.40;;;;;;;-146.48;100.00;52646.94;5345816;27;20030;-71
2021/12/02 10:45:30;;;;;;;5.00;0.20;;;;;;;-146.48;100.00;52802.94;5345445;27;20035;-71
2021/12/02 10:48:01;;;;;;;3.17;0.35;;;;;;;-146.48;100.00;53300.97;5345732;27;20042;-71
2021/12/02 10:50:37;;;;;;;4.68;0.57;;;;;;;-146.48;100.00;53100.94;5346779;27;20077;-70
2021/12/02 10:53:09;;;;;;;0.20;0.00;;;;;;;-146.48;100.00;52504.94;5345986;27;20436;-71
2021/12/02 10:55:40;;;;;;;0.10;0.00;;;;;;;-146.48;100.00;52782.94;5346047;27;20019;-71
2021/12/02 10:58:11;;;;;;;0.00;0.00;;;;;;;-146.48;100.00;52986.94;5346172;27;20027;-70
2021/12/02 11:00:46;;;;;;;4.18;0.30;;;;;;;-146.48;100.00;53360.97;5344605;27;20358;-70
2021/12/02 11:03:17;;;;;;;8.82;0.68;;;;;;;-146.48;100.00;53671.03;5346300;27;20081;-71
2021/12/02 11:05:48;;;;;;;3.80;0.30;;;;;;;-146.48;100.00;53885.06;5344663;27;20062;-70
2021/12/02 11:08:21;;;;;;;1.98;0.30;;;;;;;-146.48;100.00;53993.09;5346024;27;20459;-70
2021/12/02 11:10:52;;;;;;;0.55;0.10;;;;;;;-146.48;100.00;53497.00;5345831;27;20032;-70
2021/12/02 11:13:28;;;;;;;1.42;0.00;;;;;;;-146.48;100.00;53785.06;5344836;27;20091;-70
2021/12/02 11:15:59;;;;;;;0.20;0.00;;;;;;;-146.48;100.00;53903.06;5345539;27;20055;-70
2021/12/02 11:18:34;;;;;;;0.32;0.00;;;;;;;-146.48;100.00;54103.13;5345828;27;20446;-70
2021/12/02 11:21:06;;;;;;;1.00;0.00;;;;;;;-146.48;100.00;53911.09;5344458;27;20035;-71
2021/12/02 11:23:46;;;;;;;0.00;0.00;;;;;;;-146.48;100.00;53819.06;5345467;27;20117;-71
2021/12/02 11:26:18;;;;;;;0.00;0.00;;;;;;;-146.48;100.00;54119.16;5345354;27;20027;-70
2021/12/02 11:28:50;;;;;;;0.00;0.00;;;;;;;-146.48;100.00;54415.25;5344627;27;20530;-70
2021/12/02 11:31:22;;;;;;;0.30;0.03;;;;;;;-146.48;100.00;54297.19;5345583;27;20019;-70
2021/12/02 11:33:53;;;;;;;0.32;0.10;;;;;;;-146.48;100.00;54407.25;5344385;27;20103;-71
2021/12/02 11:36:28;;;;;;;0.30;0.00;;;;;;;-146.48;100.00;54639.34;5345769;27;20110;-70
2021/12/02 11:39:00;;;;;;;0.57;0.10;;;;;;;-146.48;100.00;54611.34;5345036;27;20031;-71
2021/12/02 11:41:31;;;;;;;5.57;0.30;;;;;;;-146.48;100.00;54405.25;5344218;27;20080;-71
2021/12/02 11:44:03;;;;;;;1.50;0.00;;;;;;;-146.48;100.00;54593.31;5344615;27;20023;-71
2021/12/02 11:46:34;;;;;;;0.38;0.10;;;;;;;-146.48;100.00;54901.47;5345213;27;20041;-70
2021/12/02 11:49:06;;;;;;;1.20;0.10;;;;;;;-146.48;100.00;55902.13;5344091;27;20483;-71
2021/12/02 11:51:38;;;;;;;1.25;0.08;;;;;;;-146.48;100.00;58943.63;5344615;27;20027;-71